sensor_id;sensor_type;location;lat;lon;timestamp;P1;durP1;ratioP1;P2;durP2;ratioP2
44110;SDS011;29774;52.664;5.074;2023-12-07T00:01:21;4.28;;;3.67;;
44110;SDS011;29774;52.664;5.074;2023-12-07T00:03:46;5.45;;;4.53;;
44110;SDS011;29774;52.664;5.074;2023-12-07T00:06:12;5.43;;;3.70;;
44110;SDS011;29774;52.664;5.074;2023-12-07T00:08:38;4.78;;;4.28;;
44110;SDS011;29774;52.664;5.074;2023-12-07T00:11:03;4.13;;;3.45;;
44110;SDS011;29774;52.664;5.074;2023-12-07T00:13:29;3.97;;;3.58;;
44110;SDS011;29774;52.664;5.074;2023-12-07T00:15:54;4.47;;;3.80;;
44110;SDS011;29774;52.664;5.074;2023-12-07T00:18:20;4.05;;;3.63;;
44110;SDS011;29774;52.664;5.074;2023-12-07T00:20:46;5.55;;;3.83;;
44110;SDS011;29774;52.664;5.074;2023-12-07T00:23:11;4.07;;;3.67;;
44110;SDS011;29774;52.664;5.074;2023-12-07T00:25:37;4.45;;;4.05;;
44110;SDS011;29774;52.664;5.074;2023-12-07T00:28:03;5.50;;;4.43;;
44110;SDS011;29774;52.664;5.074;2023-12-07T00:30:30;5.95;;;4.53;;
44110;SDS011;29774;52.664;5.074;2023-12-07T00:32:55;6.03;;;4.10;;
44110;SDS011;29774;52.664;5.074;2023-12-07T00:35:21;6.57;;;4.63;;
44110;SDS011;29774;52.664;5.074;2023-12-07T00:37:47;5.28;;;3.97;;
44110;SDS011;29774;52.664;5.074;2023-12-07T00:40:13;5.72;;;4.72;;
44110;SDS011;29774;52.664;5.074;2023-12-07T00:42:39;5.30;;;4.75;;
44110;SDS011;29774;52.664;5.074;2023-12-07T00:45:05;6.50;;;4.65;;
44110;SDS011;29774;52.664;5.074;2023-12-07T00:47:31;9.55;;;5.53;;
44110;SDS011;29774;52.664;5.074;2023-12-07T00:49:56;6.05;;;4.80;;
44110;SDS011;29774;52.664;5.074;2023-12-07T00:52:22;7.28;;;4.50;;
44110;SDS011;29774;52.664;5.074;2023-12-07T00:54:47;8.30;;;5.35;;
44110;SDS011;29774;52.664;5.074;2023-12-07T00:57:13;7.05;;;5.22;;
44110;SDS011;29774;52.664;5.074;2023-12-07T00:59:39;6.47;;;4.82;;
44110;SDS011;29774;52.664;5.074;2023-12-07T01:02:04;7.45;;;5.78;;
44110;SDS011;29774;52.664;5.074;2023-12-07T01:04:31;9.20;;;5.63;;
44110;SDS011;29774;52.664;5.074;2023-12-07T01:06:57;8.38;;;5.30;;
44110;SDS011;29774;52.664;5.074;2023-12-07T01:09:23;6.47;;;5.20;;
44110;SDS011;29774;52.664;5.074;2023-12-07T01:11:49;10.32;;;5.53;;
44110;SDS011;29774;52.664;5.074;2023-12-07T01:14:15;7.13;;;5.60;;
44110;SDS011;29774;52.664;5.074;2023-12-07T01:16:42;6.70;;;5.20;;
44110;SDS011;29774;52.664;5.074;2023-12-07T01:19:08;8.45;;;5.47;;
44110;SDS011;29774;52.664;5.074;2023-12-07T01:21:34;9.45;;;5.93;;
44110;SDS011;29774;52.664;5.074;2023-12-07T01:24:00;7.53;;;5.80;;
44110;SDS011;29774;52.664;5.074;2023-12-07T01:26:25;8.48;;;5.75;;
44110;SDS011;29774;52.664;5.074;2023-12-07T01:28:51;10.38;;;6.68;;
44110;SDS011;29774;52.664;5.074;2023-12-07T01:31:17;9.38;;;6.00;;
44110;SDS011;29774;52.664;5.074;2023-12-07T01:33:43;8.02;;;5.43;;
44110;SDS011;29774;52.664;5.074;2023-12-07T01:36:10;8.93;;;5.85;;
44110;SDS011;29774;52.664;5.074;2023-12-07T01:38:35;8.35;;;5.78;;
44110;SDS011;29774;52.664;5.074;2023-12-07T01:41:01;8.80;;;6.43;;
44110;SDS011;29774;52.664;5.074;2023-12-07T01:43:27;9.30;;;6.63;;
44110;SDS011;29774;52.664;5.074;2023-12-07T01:45:53;7.03;;;5.57;;
44110;SDS011;29774;52.664;5.074;2023-12-07T01:48:21;8.80;;;6.07;;
44110;SDS011;29774;52.664;5.074;2023-12-07T01:50:49;8.98;;;6.60;;
44110;SDS011;29774;52.664;5.074;2023-12-07T01:53:16;9.25;;;5.70;;
44110;SDS011;29774;52.664;5.074;2023-12-07T01:55:41;9.45;;;5.82;;
44110;SDS011;29774;52.664;5.074;2023-12-07T01:58:08;7.90;;;5.20;;
44110;SDS011;29774;52.664;5.074;2023-12-07T02:00:34;8.43;;;5.13;;
44110;SDS011;29774;52.664;5.074;2023-12-07T02:03:00;6.32;;;5.35;;
44110;SDS011;29774;52.664;5.074;2023-12-07T02:05:29;8.20;;;5.47;;
44110;SDS011;29774;52.664;5.074;2023-12-07T02:07:56;11.02;;;5.32;;
44110;SDS011;29774;52.664;5.074;2023-12-07T02:10:21;8.20;;;5.97;;
44110;SDS011;29774;52.664;5.074;2023-12-07T02:12:47;7.55;;;5.70;;
44110;SDS011;29774;52.664;5.074;2023-12-07T02:15:14;9.52;;;5.55;;
44110;SDS011;29774;52.664;5.074;2023-12-07T02:20:43;7.32;;;5.35;;
44110;SDS011;29774;52.664;5.074;2023-12-07T02:23:13;9.32;;;5.53;;
44110;SDS011;29774;52.664;5.074;2023-12-07T02:25:53;7.63;;;5.45;;
44110;SDS011;29774;52.664;5.074;2023-12-07T02:28:19;8.70;;;5.80;;
44110;SDS011;29774;52.664;5.074;2023-12-07T02:30:45;8.00;;;5.15;;
44110;SDS011;29774;52.664;5.074;2023-12-07T02:33:11;6.70;;;5.07;;
44110;SDS011;29774;52.664;5.074;2023-12-07T02:35:38;8.35;;;5.10;;
44110;SDS011;29774;52.664;5.074;2023-12-07T02:38:05;12.43;;;6.10;;
44110;SDS011;29774;52.664;5.074;2023-12-07T02:40:32;7.50;;;5.50;;
44110;SDS011;29774;52.664;5.074;2023-12-07T02:42:59;7.95;;;5.95;;
44110;SDS011;29774;52.664;5.074;2023-12-07T02:45:26;8.57;;;5.68;;
44110;SDS011;29774;52.664;5.074;2023-12-07T02:47:52;9.70;;;6.70;;
44110;SDS011;29774;52.664;5.074;2023-12-07T02:50:18;9.25;;;5.97;;
44110;SDS011;29774;52.664;5.074;2023-12-07T02:52:44;7.38;;;5.70;;
44110;SDS011;29774;52.664;5.074;2023-12-07T02:55:10;9.55;;;6.38;;
44110;SDS011;29774;52.664;5.074;2023-12-07T02:57:36;7.75;;;6.13;;
44110;SDS011;29774;52.664;5.074;2023-12-07T03:00:02;9.45;;;5.85;;
44110;SDS011;29774;52.664;5.074;2023-12-07T03:02:36;7.70;;;5.82;;
44110;SDS011;29774;52.664;5.074;2023-12-07T03:05:03;7.60;;;5.70;;
44110;SDS011;29774;52.664;5.074;2023-12-07T03:07:30;7.60;;;5.03;;
44110;SDS011;29774;52.664;5.074;2023-12-07T03:09:55;9.82;;;6.00;;
44110;SDS011;29774;52.664;5.074;2023-12-07T03:12:21;8.68;;;5.78;;
44110;SDS011;29774;52.664;5.074;2023-12-07T03:14:48;7.50;;;5.22;;
44110;SDS011;29774;52.664;5.074;2023-12-07T03:17:14;8.80;;;5.13;;
44110;SDS011;29774;52.664;5.074;2023-12-07T03:19:39;9.10;;;6.03;;
44110;SDS011;29774;52.664;5.074;2023-12-07T03:22:06;9.00;;;6.00;;
44110;SDS011;29774;52.664;5.074;2023-12-07T03:24:35;8.18;;;6.03;;
44110;SDS011;29774;52.664;5.074;2023-12-07T03:27:02;8.43;;;5.30;;
44110;SDS011;29774;52.664;5.074;2023-12-07T03:29:28;6.65;;;5.25;;
44110;SDS011;29774;52.664;5.074;2023-12-07T03:31:53;8.10;;;5.80;;
44110;SDS011;29774;52.664;5.074;2023-12-07T03:34:19;8.88;;;5.50;;
44110;SDS011;29774;52.664;5.074;2023-12-07T03:36:45;7.70;;;6.00;;
44110;SDS011;29774;52.664;5.074;2023-12-07T03:39:12;7.00;;;5.93;;
44110;SDS011;29774;52.664;5.074;2023-12-07T03:41:39;7.30;;;5.55;;
44110;SDS011;29774;52.664;5.074;2023-12-07T03:44:04;7.90;;;5.90;;
44110;SDS011;29774;52.664;5.074;2023-12-07T03:46:30;7.85;;;5.93;;
44110;SDS011;29774;52.664;5.074;2023-12-07T03:48:56;9.07;;;5.75;;
44110;SDS011;29774;52.664;5.074;2023-12-07T03:51:21;7.15;;;5.50;;
44110;SDS011;29774;52.664;5.074;2023-12-07T03:53:47;8.13;;;5.53;;
44110;SDS011;29774;52.664;5.074;2023-12-07T03:56:25;8.25;;;5.65;;
44110;SDS011;29774;52.664;5.074;2023-12-07T03:58:54;6.63;;;5.10;;
44110;SDS011;29774;52.664;5.074;2023-12-07T04:01:22;7.40;;;5.53;;
44110;SDS011;29774;52.664;5.074;2023-12-07T04:03:49;8.57;;;5.55;;
44110;SDS011;29774;52.664;5.074;2023-12-07T04:06:14;8.07;;;5.85;;
44110;SDS011;29774;52.664;5.074;2023-12-07T04:08:40;7.82;;;5.15;;
44110;SDS011;29774;52.664;5.074;2023-12-07T04:11:05;5.85;;;5.13;;
44110;SDS011;29774;52.664;5.074;2023-12-07T04:13:31;6.68;;;5.03;;
44110;SDS011;29774;52.664;5.074;2023-12-07T04:15:57;8.32;;;5.28;;
44110;SDS011;29774;52.664;5.074;2023-12-07T04:18:22;6.70;;;6.00;;
44110;SDS011;29774;52.664;5.074;2023-12-07T04:20:48;8.90;;;5.63;;
44110;SDS011;29774;52.664;5.074;2023-12-07T04:23:13;7.47;;;5.38;;
44110;SDS011;29774;52.664;5.074;2023-12-07T04:25:39;5.70;;;5.10;;
44110;SDS011;29774;52.664;5.074;2023-12-07T04:28:05;9.60;;;5.60;;
44110;SDS011;29774;52.664;5.074;2023-12-07T04:30:30;7.57;;;5.15;;
44110;SDS011;29774;52.664;5.074;2023-12-07T04:32:56;6.10;;;5.30;;
44110;SDS011;29774;52.664;5.074;2023-12-07T04:35:22;8.90;;;6.45;;
44110;SDS011;29774;52.664;5.074;2023-12-07T04:37:47;7.75;;;5.22;;
44110;SDS011;29774;52.664;5.074;2023-12-07T04:40:13;7.95;;;5.65;;
44110;SDS011;29774;52.664;5.074;2023-12-07T04:42:39;6.68;;;5.03;;
44110;SDS011;29774;52.664;5.074;2023-12-07T04:45:05;7.90;;;5.88;;
44110;SDS011;29774;52.664;5.074;2023-12-07T04:47:31;8.40;;;6.28;;
44110;SDS011;29774;52.664;5.074;2023-12-07T04:49:58;7.57;;;5.75;;
44110;SDS011;29774;52.664;5.074;2023-12-07T04:52:23;7.78;;;5.80;;
44110;SDS011;29774;52.664;5.074;2023-12-07T04:54:49;7.20;;;5.10;;
44110;SDS011;29774;52.664;5.074;2023-12-07T04:57:14;8.43;;;5.68;;
44110;SDS011;29774;52.664;5.074;2023-12-07T04:59:40;10.32;;;5.38;;
44110;SDS011;29774;52.664;5.074;2023-12-07T05:02:06;5.65;;;5.07;;
44110;SDS011;29774;52.664;5.074;2023-12-07T05:04:31;7.05;;;4.75;;
44110;SDS011;29774;52.664;5.074;2023-12-07T05:06:58;7.65;;;5.03;;
44110;SDS011;29774;52.664;5.074;2023-12-07T05:09:25;6.95;;;4.78;;
44110;SDS011;29774;52.664;5.074;2023-12-07T05:11:51;8.80;;;5.40;;
44110;SDS011;29774;52.664;5.074;2023-12-07T05:14:16;11.05;;;5.65;;
44110;SDS011;29774;52.664;5.074;2023-12-07T05:16:42;7.45;;;5.10;;
44110;SDS011;29774;52.664;5.074;2023-12-07T05:19:08;5.88;;;5.20;;
44110;SDS011;29774;52.664;5.074;2023-12-07T05:21:34;5.78;;;5.18;;
44110;SDS011;29774;52.664;5.074;2023-12-07T05:24:00;7.03;;;5.05;;
44110;SDS011;29774;52.664;5.074;2023-12-07T05:26:26;5.47;;;4.90;;
44110;SDS011;29774;52.664;5.074;2023-12-07T05:28:51;6.15;;;4.55;;
44110;SDS011;29774;52.664;5.074;2023-12-07T05:31:17;7.63;;;5.72;;
44110;SDS011;29774;52.664;5.074;2023-12-07T05:33:43;6.07;;;5.47;;
44110;SDS011;29774;52.664;5.074;2023-12-07T05:36:09;9.10;;;5.53;;
44110;SDS011;29774;52.664;5.074;2023-12-07T05:38:35;6.35;;;5.07;;
44110;SDS011;29774;52.664;5.074;2023-12-07T05:41:00;7.85;;;5.22;;
44110;SDS011;29774;52.664;5.074;2023-12-07T05:43:26;11.38;;;5.88;;
44110;SDS011;29774;52.664;5.074;2023-12-07T05:45:52;8.45;;;6.60;;
44110;SDS011;29774;52.664;5.074;2023-12-07T05:48:17;7.55;;;5.93;;
44110;SDS011;29774;52.664;5.074;2023-12-07T05:50:43;10.88;;;5.80;;
44110;SDS011;29774;52.664;5.074;2023-12-07T05:53:09;7.60;;;5.30;;
44110;SDS011;29774;52.664;5.074;2023-12-07T05:55:35;8.85;;;6.32;;
44110;SDS011;29774;52.664;5.074;2023-12-07T05:58:01;12.13;;;6.57;;
44110;SDS011;29774;52.664;5.074;2023-12-07T06:00:29;7.38;;;5.68;;
44110;SDS011;29774;52.664;5.074;2023-12-07T06:02:55;8.18;;;5.82;;
44110;SDS011;29774;52.664;5.074;2023-12-07T06:05:21;7.93;;;5.97;;
44110;SDS011;29774;52.664;5.074;2023-12-07T06:07:46;7.13;;;5.80;;
44110;SDS011;29774;52.664;5.074;2023-12-07T06:10:12;8.70;;;6.35;;
44110;SDS011;29774;52.664;5.074;2023-12-07T06:12:37;6.97;;;6.28;;
44110;SDS011;29774;52.664;5.074;2023-12-07T06:15:04;8.32;;;6.00;;
44110;SDS011;29774;52.664;5.074;2023-12-07T06:17:31;9.45;;;6.43;;
44110;SDS011;29774;52.664;5.074;2023-12-07T06:19:58;10.20;;;6.00;;
44110;SDS011;29774;52.664;5.074;2023-12-07T06:22:24;8.23;;;6.32;;
44110;SDS011;29774;52.664;5.074;2023-12-07T06:24:50;9.45;;;6.20;;
44110;SDS011;29774;52.664;5.074;2023-12-07T06:27:15;9.25;;;6.20;;
44110;SDS011;29774;52.664;5.074;2023-12-07T06:29:41;6.53;;;5.90;;
44110;SDS011;29774;52.664;5.074;2023-12-07T06:32:06;10.68;;;6.13;;
44110;SDS011;29774;52.664;5.074;2023-12-07T06:34:32;9.23;;;6.00;;
44110;SDS011;29774;52.664;5.074;2023-12-07T06:36:58;10.15;;;6.38;;
44110;SDS011;29774;52.664;5.074;2023-12-07T06:39:23;7.97;;;5.97;;
44110;SDS011;29774;52.664;5.074;2023-12-07T06:41:49;9.90;;;6.45;;
44110;SDS011;29774;52.664;5.074;2023-12-07T06:44:14;8.57;;;6.45;;
44110;SDS011;29774;52.664;5.074;2023-12-07T06:46:40;8.95;;;6.50;;
44110;SDS011;29774;52.664;5.074;2023-12-07T06:49:05;9.48;;;6.78;;
44110;SDS011;29774;52.664;5.074;2023-12-07T06:51:31;10.07;;;7.30;;
44110;SDS011;29774;52.664;5.074;2023-12-07T06:53:57;11.15;;;7.18;;
44110;SDS011;29774;52.664;5.074;2023-12-07T06:56:22;12.40;;;7.35;;
44110;SDS011;29774;52.664;5.074;2023-12-07T06:58:48;8.27;;;6.65;;
44110;SDS011;29774;52.664;5.074;2023-12-07T07:01:13;8.32;;;6.50;;
44110;SDS011;29774;52.664;5.074;2023-12-07T07:03:39;8.38;;;7.00;;
44110;SDS011;29774;52.664;5.074;2023-12-07T07:06:04;9.50;;;6.50;;
44110;SDS011;29774;52.664;5.074;2023-12-07T07:08:30;7.15;;;5.72;;
44110;SDS011;29774;52.664;5.074;2023-12-07T07:10:56;10.82;;;6.38;;
44110;SDS011;29774;52.664;5.074;2023-12-07T07:13:21;8.38;;;6.80;;
44110;SDS011;29774;52.664;5.074;2023-12-07T07:15:47;12.30;;;6.80;;
44110;SDS011;29774;52.664;5.074;2023-12-07T07:18:15;8.98;;;6.47;;
44110;SDS011;29774;52.664;5.074;2023-12-07T07:20:41;8.80;;;6.32;;
44110;SDS011;29774;52.664;5.074;2023-12-07T07:23:07;11.73;;;5.82;;
44110;SDS011;29774;52.664;5.074;2023-12-07T07:25:33;8.57;;;5.75;;
44110;SDS011;29774;52.664;5.074;2023-12-07T07:27:59;11.23;;;6.22;;
44110;SDS011;29774;52.664;5.074;2023-12-07T07:30:25;9.18;;;6.68;;
44110;SDS011;29774;52.664;5.074;2023-12-07T07:32:51;7.55;;;6.32;;
44110;SDS011;29774;52.664;5.074;2023-12-07T07:35:17;9.65;;;6.47;;
44110;SDS011;29774;52.664;5.074;2023-12-07T07:37:42;10.35;;;6.50;;
44110;SDS011;29774;52.664;5.074;2023-12-07T07:40:08;9.75;;;6.30;;
44110;SDS011;29774;52.664;5.074;2023-12-07T07:42:36;9.75;;;6.60;;
44110;SDS011;29774;52.664;5.074;2023-12-07T07:45:04;8.15;;;6.20;;
44110;SDS011;29774;52.664;5.074;2023-12-07T07:47:31;6.75;;;5.57;;
44110;SDS011;29774;52.664;5.074;2023-12-07T07:49:57;10.77;;;6.43;;
44110;SDS011;29774;52.664;5.074;2023-12-07T07:52:23;9.45;;;6.22;;
44110;SDS011;29774;52.664;5.074;2023-12-07T07:54:49;8.82;;;6.53;;
44110;SDS011;29774;52.664;5.074;2023-12-07T07:57:14;9.07;;;6.63;;
44110;SDS011;29774;52.664;5.074;2023-12-07T07:59:40;10.23;;;5.78;;
44110;SDS011;29774;52.664;5.074;2023-12-07T08:02:05;7.93;;;6.40;;
44110;SDS011;29774;52.664;5.074;2023-12-07T08:04:31;10.65;;;6.75;;
44110;SDS011;29774;52.664;5.074;2023-12-07T08:06:57;10.68;;;6.70;;
44110;SDS011;29774;52.664;5.074;2023-12-07T08:09:23;10.55;;;6.50;;
44110;SDS011;29774;52.664;5.074;2023-12-07T08:11:48;59.97;;;9.30;;
44110;SDS011;29774;52.664;5.074;2023-12-07T08:14:14;65.10;;;8.88;;
44110;SDS011;29774;52.664;5.074;2023-12-07T08:16:42;36.42;;;7.57;;
44110;SDS011;29774;52.664;5.074;2023-12-07T08:19:11;40.15;;;7.10;;
44110;SDS011;29774;52.664;5.074;2023-12-07T08:21:38;29.45;;;7.15;;
44110;SDS011;29774;52.664;5.074;2023-12-07T08:24:04;44.40;;;7.43;;
44110;SDS011;29774;52.664;5.074;2023-12-07T08:26:30;58.67;;;7.45;;
44110;SDS011;29774;52.664;5.074;2023-12-07T08:28:56;54.45;;;7.03;;
44110;SDS011;29774;52.664;5.074;2023-12-07T08:31:22;60.67;;;7.47;;
44110;SDS011;29774;52.664;5.074;2023-12-07T08:33:49;35.05;;;5.85;;
44110;SDS011;29774;52.664;5.074;2023-12-07T08:36:17;43.88;;;6.25;;
44110;SDS011;29774;52.664;5.074;2023-12-07T08:38:43;43.40;;;6.47;;
44110;SDS011;29774;52.664;5.074;2023-12-07T08:41:08;70.72;;;7.43;;
44110;SDS011;29774;52.664;5.074;2023-12-07T08:43:34;62.03;;;7.13;;
44110;SDS011;29774;52.664;5.074;2023-12-07T08:45:59;55.78;;;7.20;;
44110;SDS011;29774;52.664;5.074;2023-12-07T08:48:25;59.35;;;7.03;;
44110;SDS011;29774;52.664;5.074;2023-12-07T08:50:51;35.53;;;5.60;;
44110;SDS011;29774;52.664;5.074;2023-12-07T08:53:16;38.65;;;6.57;;
44110;SDS011;29774;52.664;5.074;2023-12-07T08:55:42;36.08;;;7.10;;
44110;SDS011;29774;52.664;5.074;2023-12-07T08:58:08;29.10;;;5.65;;
44110;SDS011;29774;52.664;5.074;2023-12-07T09:00:35;25.33;;;5.47;;
44110;SDS011;29774;52.664;5.074;2023-12-07T09:03:03;36.78;;;6.07;;
44110;SDS011;29774;52.664;5.074;2023-12-07T09:05:29;29.33;;;5.93;;
44110;SDS011;29774;52.664;5.074;2023-12-07T09:07:57;23.50;;;6.38;;
44110;SDS011;29774;52.664;5.074;2023-12-07T09:10:23;47.20;;;6.32;;
44110;SDS011;29774;52.664;5.074;2023-12-07T09:12:49;57.92;;;7.45;;
44110;SDS011;29774;52.664;5.074;2023-12-07T09:15:14;50.40;;;6.97;;
44110;SDS011;29774;52.664;5.074;2023-12-07T09:17:40;62.80;;;8.07;;
44110;SDS011;29774;52.664;5.074;2023-12-07T09:20:09;59.83;;;7.03;;
44110;SDS011;29774;52.664;5.074;2023-12-07T09:22:40;50.17;;;7.32;;
44110;SDS011;29774;52.664;5.074;2023-12-07T09:25:07;54.03;;;7.97;;
44110;SDS011;29774;52.664;5.074;2023-12-07T09:27:34;40.60;;;7.43;;
44110;SDS011;29774;52.664;5.074;2023-12-07T09:30:02;55.35;;;7.35;;
44110;SDS011;29774;52.664;5.074;2023-12-07T09:32:29;55.63;;;7.78;;
44110;SDS011;29774;52.664;5.074;2023-12-07T09:34:55;52.05;;;7.28;;
44110;SDS011;29774;52.664;5.074;2023-12-07T09:37:21;51.75;;;7.30;;
44110;SDS011;29774;52.664;5.074;2023-12-07T09:39:47;58.35;;;7.72;;
44110;SDS011;29774;52.664;5.074;2023-12-07T09:42:12;69.40;;;7.65;;
44110;SDS011;29774;52.664;5.074;2023-12-07T09:44:38;47.92;;;6.80;;
44110;SDS011;29774;52.664;5.074;2023-12-07T09:47:04;44.03;;;6.53;;
44110;SDS011;29774;52.664;5.074;2023-12-07T09:49:30;48.28;;;8.30;;
44110;SDS011;29774;52.664;5.074;2023-12-07T09:51:56;60.33;;;7.65;;
44110;SDS011;29774;52.664;5.074;2023-12-07T09:54:24;62.05;;;9.25;;
44110;SDS011;29774;52.664;5.074;2023-12-07T09:56:51;40.83;;;7.88;;
44110;SDS011;29774;52.664;5.074;2023-12-07T09:59:19;36.53;;;8.13;;
44110;SDS011;29774;52.664;5.074;2023-12-07T10:01:45;35.90;;;7.50;;
44110;SDS011;29774;52.664;5.074;2023-12-07T10:04:20;62.28;;;8.50;;
44110;SDS011;29774;52.664;5.074;2023-12-07T10:06:49;46.85;;;8.70;;
44110;SDS011;29774;52.664;5.074;2023-12-07T10:09:15;53.03;;;7.75;;
44110;SDS011;29774;52.664;5.074;2023-12-07T10:11:41;46.38;;;8.35;;
44110;SDS011;29774;52.664;5.074;2023-12-07T10:14:08;44.38;;;8.65;;
44110;SDS011;29774;52.664;5.074;2023-12-07T10:16:34;44.38;;;8.43;;
44110;SDS011;29774;52.664;5.074;2023-12-07T10:19:16;51.30;;;9.48;;
44110;SDS011;29774;52.664;5.074;2023-12-07T10:21:46;33.67;;;7.93;;
44110;SDS011;29774;52.664;5.074;2023-12-07T10:24:16;57.50;;;9.15;;
44110;SDS011;29774;52.664;5.074;2023-12-07T10:26:43;39.65;;;7.75;;
44110;SDS011;29774;52.664;5.074;2023-12-07T10:29:10;43.47;;;7.43;;
44110;SDS011;29774;52.664;5.074;2023-12-07T10:31:36;38.78;;;7.95;;
44110;SDS011;29774;52.664;5.074;2023-12-07T10:34:02;47.67;;;8.82;;
44110;SDS011;29774;52.664;5.074;2023-12-07T10:36:29;33.20;;;8.40;;
44110;SDS011;29774;52.664;5.074;2023-12-07T10:38:55;31.35;;;8.02;;
44110;SDS011;29774;52.664;5.074;2023-12-07T10:41:22;19.30;;;6.78;;
44110;SDS011;29774;52.664;5.074;2023-12-07T10:43:51;30.63;;;8.35;;
44110;SDS011;29774;52.664;5.074;2023-12-07T10:46:19;26.25;;;8.93;;
44110;SDS011;29774;52.664;5.074;2023-12-07T10:48:51;43.08;;;8.60;;
44110;SDS011;29774;52.664;5.074;2023-12-07T10:54:18;41.15;;;9.20;;
44110;SDS011;29774;52.664;5.074;2023-12-07T10:56:47;45.03;;;8.32;;
44110;SDS011;29774;52.664;5.074;2023-12-07T10:59:16;21.77;;;8.07;;
44110;SDS011;29774;52.664;5.074;2023-12-07T11:01:42;40.30;;;9.43;;
44110;SDS011;29774;52.664;5.074;2023-12-07T11:04:12;38.03;;;8.18;;
44110;SDS011;29774;52.664;5.074;2023-12-07T11:06:39;32.70;;;8.05;;
44110;SDS011;29774;52.664;5.074;2023-12-07T11:09:08;36.75;;;8.32;;
44110;SDS011;29774;52.664;5.074;2023-12-07T11:11:54;25.23;;;7.68;;
44110;SDS011;29774;52.664;5.074;2023-12-07T11:14:28;26.95;;;8.80;;
44110;SDS011;29774;52.664;5.074;2023-12-07T11:16:54;25.77;;;6.07;;
44110;SDS011;29774;52.664;5.074;2023-12-07T11:22:05;24.05;;;8.35;;
44110;SDS011;29774;52.664;5.074;2023-12-07T11:24:32;23.67;;;8.13;;
44110;SDS011;29774;52.664;5.074;2023-12-07T11:26:58;27.08;;;8.25;;
44110;SDS011;29774;52.664;5.074;2023-12-07T11:29:24;29.17;;;8.23;;
44110;SDS011;29774;52.664;5.074;2023-12-07T11:31:51;19.85;;;7.20;;
44110;SDS011;29774;52.664;5.074;2023-12-07T11:37:03;21.42;;;7.90;;
44110;SDS011;29774;52.664;5.074;2023-12-07T11:39:29;21.55;;;7.05;;
44110;SDS011;29774;52.664;5.074;2023-12-07T11:42:05;20.50;;;6.88;;
44110;SDS011;29774;52.664;5.074;2023-12-07T11:44:40;21.95;;;8.50;;
44110;SDS011;29774;52.664;5.074;2023-12-07T11:47:08;31.25;;;8.40;;
44110;SDS011;29774;52.664;5.074;2023-12-07T11:49:34;19.55;;;7.78;;
44110;SDS011;29774;52.664;5.074;2023-12-07T11:52:00;18.02;;;8.07;;
44110;SDS011;29774;52.664;5.074;2023-12-07T11:54:37;18.45;;;8.55;;
44110;SDS011;29774;52.664;5.074;2023-12-07T11:57:03;15.05;;;8.52;;
44110;SDS011;29774;52.664;5.074;2023-12-07T11:59:28;15.27;;;8.63;;
44110;SDS011;29774;52.664;5.074;2023-12-07T12:01:54;21.23;;;8.45;;
44110;SDS011;29774;52.664;5.074;2023-12-07T12:04:21;24.05;;;8.57;;
44110;SDS011;29774;52.664;5.074;2023-12-07T12:06:46;25.15;;;7.82;;
44110;SDS011;29774;52.664;5.074;2023-12-07T12:09:15;19.40;;;7.93;;
44110;SDS011;29774;52.664;5.074;2023-12-07T12:11:44;12.88;;;7.57;;
44110;SDS011;29774;52.664;5.074;2023-12-07T12:14:12;21.90;;;8.45;;
44110;SDS011;29774;52.664;5.074;2023-12-07T12:16:45;9.35;;;6.40;;
44110;SDS011;29774;52.664;5.074;2023-12-07T12:19:12;14.82;;;7.53;;
44110;SDS011;29774;52.664;5.074;2023-12-07T12:21:41;11.05;;;6.47;;
44110;SDS011;29774;52.664;5.074;2023-12-07T12:24:08;14.52;;;6.50;;
44110;SDS011;29774;52.664;5.074;2023-12-07T12:26:36;12.90;;;6.70;;
44110;SDS011;29774;52.664;5.074;2023-12-07T12:29:07;14.82;;;7.07;;
44110;SDS011;29774;52.664;5.074;2023-12-07T12:31:37;12.13;;;8.40;;
44110;SDS011;29774;52.664;5.074;2023-12-07T12:34:06;11.00;;;8.15;;
44110;SDS011;29774;52.664;5.074;2023-12-07T12:36:33;13.25;;;7.82;;
44110;SDS011;29774;52.664;5.074;2023-12-07T12:38:59;16.60;;;6.90;;
44110;SDS011;29774;52.664;5.074;2023-12-07T12:41:27;8.98;;;6.90;;
44110;SDS011;29774;52.664;5.074;2023-12-07T12:43:55;18.85;;;7.00;;
44110;SDS011;29774;52.664;5.074;2023-12-07T12:46:21;9.35;;;7.40;;
44110;SDS011;29774;52.664;5.074;2023-12-07T12:48:54;10.65;;;6.07;;
44110;SDS011;29774;52.664;5.074;2023-12-07T12:51:20;10.75;;;5.20;;
44110;SDS011;29774;52.664;5.074;2023-12-07T12:53:46;7.72;;;5.25;;
44110;SDS011;29774;52.664;5.074;2023-12-07T12:56:13;10.88;;;5.75;;
44110;SDS011;29774;52.664;5.074;2023-12-07T12:58:39;8.43;;;5.00;;
44110;SDS011;29774;52.664;5.074;2023-12-07T13:01:05;6.38;;;5.13;;
44110;SDS011;29774;52.664;5.074;2023-12-07T13:03:31;10.27;;;6.00;;
44110;SDS011;29774;52.664;5.074;2023-12-07T13:05:57;13.80;;;6.18;;
44110;SDS011;29774;52.664;5.074;2023-12-07T13:08:23;10.20;;;6.15;;
44110;SDS011;29774;52.664;5.074;2023-12-07T13:10:49;9.90;;;5.72;;
44110;SDS011;29774;52.664;5.074;2023-12-07T13:13:15;15.32;;;6.82;;
44110;SDS011;29774;52.664;5.074;2023-12-07T13:15:41;10.63;;;5.65;;
44110;SDS011;29774;52.664;5.074;2023-12-07T13:18:07;13.25;;;5.72;;
44110;SDS011;29774;52.664;5.074;2023-12-07T13:20:33;18.95;;;6.25;;
44110;SDS011;29774;52.664;5.074;2023-12-07T13:23:02;11.32;;;6.03;;
44110;SDS011;29774;52.664;5.074;2023-12-07T13:25:28;12.02;;;6.72;;
44110;SDS011;29774;52.664;5.074;2023-12-07T13:27:54;8.63;;;5.60;;
44110;SDS011;29774;52.664;5.074;2023-12-07T13:30:19;10.43;;;6.47;;
44110;SDS011;29774;52.664;5.074;2023-12-07T13:32:45;8.68;;;5.82;;
44110;SDS011;29774;52.664;5.074;2023-12-07T13:35:10;9.43;;;6.53;;
44110;SDS011;29774;52.664;5.074;2023-12-07T13:37:38;10.85;;;6.82;;
44110;SDS011;29774;52.664;5.074;2023-12-07T13:40:04;9.85;;;6.35;;
44110;SDS011;29774;52.664;5.074;2023-12-07T13:42:35;9.27;;;6.28;;
44110;SDS011;29774;52.664;5.074;2023-12-07T13:45:02;11.18;;;6.57;;
44110;SDS011;29774;52.664;5.074;2023-12-07T13:47:28;11.43;;;5.85;;
44110;SDS011;29774;52.664;5.074;2023-12-07T13:49:59;9.32;;;6.00;;
44110;SDS011;29774;52.664;5.074;2023-12-07T13:52:25;11.73;;;6.22;;
44110;SDS011;29774;52.664;5.074;2023-12-07T13:54:53;10.75;;;6.45;;
44110;SDS011;29774;52.664;5.074;2023-12-07T13:57:19;11.85;;;6.07;;
44110;SDS011;29774;52.664;5.074;2023-12-07T13:59:46;9.60;;;6.05;;
44110;SDS011;29774;52.664;5.074;2023-12-07T14:02:11;9.23;;;6.22;;
44110;SDS011;29774;52.664;5.074;2023-12-07T14:04:38;14.65;;;7.50;;
44110;SDS011;29774;52.664;5.074;2023-12-07T14:07:07;12.00;;;6.28;;
44110;SDS011;29774;52.664;5.074;2023-12-07T14:09:35;10.77;;;7.03;;
44110;SDS011;29774;52.664;5.074;2023-12-07T14:12:01;10.48;;;6.63;;
44110;SDS011;29774;52.664;5.074;2023-12-07T14:14:27;11.00;;;7.30;;
44110;SDS011;29774;52.664;5.074;2023-12-07T14:16:52;13.45;;;7.05;;
44110;SDS011;29774;52.664;5.074;2023-12-07T14:19:19;12.18;;;7.25;;
44110;SDS011;29774;52.664;5.074;2023-12-07T14:21:45;12.43;;;7.85;;
44110;SDS011;29774;52.664;5.074;2023-12-07T14:24:10;12.15;;;6.63;;
44110;SDS011;29774;52.664;5.074;2023-12-07T14:26:36;12.00;;;7.50;;
44110;SDS011;29774;52.664;5.074;2023-12-07T14:29:01;14.07;;;7.75;;
44110;SDS011;29774;52.664;5.074;2023-12-07T14:31:27;14.40;;;7.50;;
44110;SDS011;29774;52.664;5.074;2023-12-07T14:33:52;11.20;;;7.60;;
44110;SDS011;29774;52.664;5.074;2023-12-07T14:36:20;12.63;;;7.85;;
44110;SDS011;29774;52.664;5.074;2023-12-07T14:38:46;12.30;;;7.70;;
44110;SDS011;29774;52.664;5.074;2023-12-07T14:41:11;12.82;;;8.30;;
44110;SDS011;29774;52.664;5.074;2023-12-07T14:43:38;12.55;;;7.28;;
44110;SDS011;29774;52.664;5.074;2023-12-07T14:46:05;12.98;;;8.90;;
44110;SDS011;29774;52.664;5.074;2023-12-07T14:48:32;12.05;;;8.30;;